createdAt,value
2022-12-18T08:03:22.618Z,1.67
2022-12-18T08:06:09.276Z,1.51
2022-12-18T08:08:41.743Z,1.46
2022-12-18T08:11:20.016Z,1.45
2022-12-18T08:13:58.090Z,1.38
2022-12-18T08:16:28.391Z,1.49
2022-12-18T08:19:04.823Z,1.54
2022-12-18T08:21:37.748Z,1.56
2022-12-18T08:24:11.477Z,1.48
2022-12-18T08:26:45.570Z,1.59
2022-12-18T08:29:22.213Z,1.50
2022-12-18T08:31:53.486Z,1.48
2022-12-18T08:34:23.981Z,1.56
2022-12-18T08:36:58.144Z,1.50
2022-12-18T08:39:35.031Z,1.54
2022-12-18T08:42:25.869Z,1.51
2022-12-18T08:44:53.875Z,1.47
2022-12-18T08:47:20.628Z,1.42
2022-12-18T08:49:50.658Z,1.57
2022-12-18T08:52:22.873Z,1.72
2022-12-18T08:54:55.549Z,1.85
2022-12-18T08:57:25.795Z,1.94
2022-12-18T08:59:56.717Z,2.06
2022-12-18T09:02:39.754Z,2.10
2022-12-18T09:05:16.863Z,2.13
2022-12-18T09:07:47.376Z,2.10
2022-12-18T09:10:31.275Z,1.86
2022-12-18T09:13:01.899Z,1.80
2022-12-18T09:15:50.063Z,1.82
2022-12-18T09:18:25.099Z,1.67
2022-12-18T09:20:56.484Z,1.80
2022-12-18T09:23:40.381Z,1.97
2022-12-18T09:26:07.558Z,2.05
2022-12-18T09:28:37.663Z,2.02
2022-12-18T09:31:07.672Z,2.08
2022-12-18T09:33:42.583Z,2.16
2022-12-18T09:36:11.796Z,2.25
2022-12-18T09:38:39.338Z,2.28
2022-12-18T09:41:24.526Z,2.23
2022-12-18T09:43:57.172Z,2.27
2022-12-18T09:46:30.780Z,2.43
2022-12-18T09:49:03.353Z,2.40
2022-12-18T09:51:47.100Z,2.58
2022-12-18T09:54:24.378Z,2.70
2022-12-18T09:56:52.750Z,2.75
2022-12-18T09:59:48.758Z,2.67
2022-12-18T10:02:28.308Z,2.68
2022-12-18T10:05:43.759Z,2.71
2022-12-18T10:08:39.891Z,2.33
2022-12-18T10:11:22.447Z,2.27
2022-12-18T10:14:06.636Z,2.08
2022-12-18T10:16:43.817Z,2.24
2022-12-18T10:19:29.090Z,2.18
2022-12-18T10:22:14.314Z,2.04
2022-12-18T10:25:05.626Z,1.80
2022-12-18T10:27:36.959Z,1.69
2022-12-18T10:30:17.184Z,1.50
2022-12-18T10:32:47.910Z,1.47
2022-12-18T10:35:27.265Z,1.40
2022-12-18T10:38:06.694Z,1.40
2022-12-18T10:40:55.348Z,1.38
2022-12-18T10:43:26.155Z,1.41
2022-12-18T10:46:12.210Z,1.53
2022-12-18T10:48:53.466Z,1.71
2022-12-18T10:51:38.428Z,1.83
2022-12-18T10:54:25.638Z,1.85
2022-12-18T10:57:15.542Z,1.78
2022-12-18T10:59:52.975Z,1.64
2022-12-18T11:02:39.572Z,1.69
2022-12-18T11:05:32.730Z,1.72
2022-12-18T11:08:04.161Z,1.82
2022-12-18T11:10:41.229Z,1.96
2022-12-18T11:13:26.468Z,1.81
2022-12-18T11:15:57.338Z,1.79
2022-12-18T11:18:34.082Z,1.42
2022-12-18T11:21:09.850Z,1.54
2022-12-18T11:23:54.249Z,1.59
2022-12-18T11:26:22.164Z,1.71
2022-12-18T11:29:07.833Z,1.73
2022-12-18T11:31:34.561Z,1.80
2022-12-18T11:34:29.173Z,1.73
2022-12-18T11:37:00.056Z,1.68
2022-12-18T11:39:42.193Z,1.87
2022-12-18T11:42:22.117Z,1.81
2022-12-18T11:44:54.267Z,1.83
2022-12-18T11:47:49.451Z,2.05
2022-12-18T11:50:18.145Z,2.37
2022-12-18T11:52:45.491Z,2.66
2022-12-18T11:55:21.339Z,2.77
2022-12-18T11:58:20.204Z,2.71
2022-12-18T12:01:23.496Z,2.66
2022-12-18T12:03:53.393Z,2.65
2022-12-18T12:06:57.469Z,2.77
2022-12-18T12:09:47.994Z,2.93
2022-12-18T12:12:49.384Z,3.07
2022-12-18T12:15:31.803Z,3.35
2022-12-18T12:18:25.266Z,3.05
2022-12-18T12:21:04.450Z,3.27
2022-12-18T12:23:46.172Z,3.40
2022-12-18T12:26:26.453Z,3.34
2022-12-18T12:29:21.179Z,3.29
2022-12-18T12:32:19.994Z,3.00
2022-12-18T12:35:00.837Z,3.17
2022-12-18T12:37:50.453Z,3.14
2022-12-18T12:40:51.305Z,3.09
2022-12-18T12:43:35.825Z,3.24
2022-12-18T12:46:07.408Z,3.33
2022-12-18T12:48:47.745Z,3.39
2022-12-18T12:51:28.888Z,3.45
2022-12-18T12:53:58.393Z,3.32
2022-12-18T12:56:52.839Z,3.34
2022-12-18T12:59:49.056Z,3.23
2022-12-18T13:03:10.040Z,3.12
2022-12-18T13:05:57.979Z,2.87
2022-12-18T13:08:35.272Z,2.84
2022-12-18T13:11:21.048Z,2.88
2022-12-18T13:13:54.302Z,3.03
2022-12-18T13:16:24.364Z,3.01
2022-12-18T13:19:05.580Z,3.06
2022-12-18T13:21:34.913Z,3.13
2022-12-18T13:24:37.225Z,2.88
2022-12-18T13:27:47.050Z,2.57
2022-12-18T13:30:32.592Z,2.47
2022-12-18T13:33:25.381Z,2.40
2022-12-18T13:36:03.350Z,2.36
2022-12-18T13:38:34.137Z,2.29
2022-12-18T13:41:19.206Z,2.30
2022-12-18T13:43:48.857Z,2.21
2022-12-18T13:46:20.479Z,2.19
2022-12-18T13:49:01.773Z,2.23
2022-12-18T13:51:31.247Z,2.31
2022-12-18T13:54:01.449Z,2.33
2022-12-18T13:56:31.241Z,2.37
2022-12-18T13:59:22.878Z,2.38
2022-12-18T14:02:15.738Z,2.41
2022-12-18T14:04:46.326Z,2.46
2022-12-18T14:07:20.048Z,2.45
2022-12-18T14:09:55.626Z,2.38
2022-12-18T14:12:50.993Z,2.36
2022-12-18T14:15:48.442Z,2.36
2022-12-18T14:18:22.158Z,2.30
2022-12-18T14:20:53.409Z,2.28
2022-12-18T14:23:33.714Z,2.25
2022-12-18T14:26:28.402Z,2.24
2022-12-18T14:29:23.206Z,2.21
2022-12-18T14:32:18.346Z,2.18
2022-12-18T14:34:54.919Z,1.90
2022-12-18T14:40:13.986Z,1.73
2022-12-18T14:43:12.504Z,1.71
2022-12-18T14:45:56.172Z,1.71
